Time;durP1;ratioP1;P1;durP2;ratioP2;P2;SDS_P1;SDS_P2;PMS_P1;PMS_P2;Temp;Humidity;BMP_temperature;BMP_pressure;BME280_temperature;BME280_humidity;BME280_pressure;Samples;Min_cycle;Max_cycle;Signal;HPM_P1;HPM_P2
2023/07/20 00:01:07;;;;;;;3.47;2.20;;;;;;;20.11;63.66;97932.56;4996507;28;20229;-75
2023/07/20 00:03:33;;;;;;;3.50;2.10;;;;;;;20.07;63.33;97936.09;4996554;28;20691;-75
2023/07/20 00:05:59;;;;;;;2.93;2.20;;;;;;;19.98;63.96;97940.50;4996896;28;20233;-75
2023/07/20 00:08:26;;;;;;;3.23;1.93;;;;;;;19.99;62.52;97945.56;4996738;28;20227;-75
2023/07/20 00:10:52;;;;;;;4.00;2.43;;;;;;;19.90;63.33;97946.47;4996804;28;20601;-75
2023/07/20 00:13:20;;;;;;;4.63;1.83;;;;;;;19.87;62.65;97941.63;4997156;28;20207;-75
2023/07/20 00:15:47;;;;;;;2.57;2.10;;;;;;;19.83;62.01;97941.38;4996321;28;20678;-75
2023/07/20 00:18:14;;;;;;;2.10;1.90;;;;;;;19.88;60.82;97938.66;4996533;28;20318;-75
2023/07/20 00:20:41;;;;;;;4.23;2.23;;;;;;;19.77;59.21;97943.31;4996179;28;20678;-76
2023/07/20 00:23:07;;;;;;;2.23;2.00;;;;;;;19.72;59.83;97942.56;4996074;28;20275;-75
2023/07/20 00:25:34;;;;;;;2.67;2.00;;;;;;;19.71;58.69;97949.00;4996470;28;20310;-75
2023/07/20 00:28:01;;;;;;;3.30;2.00;;;;;;;19.59;59.97;97941.25;4996411;28;20211;-75
2023/07/20 00:30:27;;;;;;;3.30;1.97;;;;;;;19.73;57.22;97947.66;4995992;28;20238;-75
2023/07/20 00:32:53;;;;;;;3.13;1.93;;;;;;;19.75;56.53;97936.59;4996299;28;20214;-75
2023/07/20 00:35:20;;;;;;;2.60;1.80;;;;;;;19.77;56.16;97937.91;4996188;28;20207;-75
2023/07/20 00:37:46;;;;;;;6.03;1.77;;;;;;;19.67;56.09;97931.78;4996129;28;20203;-75
2023/07/20 00:40:13;;;;;;;2.83;1.60;;;;;;;19.68;57.11;97936.91;4995888;28;20231;-75
2023/07/20 00:42:39;;;;;;;4.23;1.90;;;;;;;19.71;55.26;97937.44;4996079;28;20223;-75
2023/07/20 00:45:06;;;;;;;2.97;1.80;;;;;;;19.63;57.79;97946.13;4995826;28;20571;-75
2023/07/20 00:47:33;;;;;;;1.93;1.67;;;;;;;19.59;56.98;97940.47;4996423;28;20214;-75
2023/07/20 00:50:00;;;;;;;2.43;1.60;;;;;;;19.66;56.56;97946.34;4995837;28;20235;-75
2023/07/20 00:52:28;;;;;;;4.00;1.83;;;;;;;19.54;57.13;97943.22;4995669;28;20705;-75
2023/07/20 00:54:56;;;;;;;2.27;1.73;;;;;;;19.52;58.62;97946.19;4995678;28;20203;-75
2023/07/20 00:57:24;;;;;;;2.20;1.60;;;;;;;19.44;58.48;97949.44;4995858;28;20216;-75
2023/07/20 00:59:51;;;;;;;1.70;1.60;;;;;;;19.33;58.84;97953.28;4995584;28;20224;-75
2023/07/20 01:02:17;;;;;;;3.07;1.80;;;;;;;19.35;58.49;97958.38;4995021;28;20720;-75
2023/07/20 01:04:44;;;;;;;5.33;1.87;;;;;;;19.31;58.91;97958.13;4995535;28;20246;-75
2023/07/20 01:07:22;;;;;;;3.87;1.90;;;;;;;19.22;59.25;97956.25;4995095;28;20218;-75
2023/07/20 01:10:12;;;;;;;3.80;1.87;;;;;;;19.19;58.62;97957.63;4995272;28;20226;-75
2023/07/20 01:12:49;;;;;;;3.43;1.83;;;;;;;19.16;58.92;97949.28;4995057;28;20187;-75
2023/07/20 01:15:15;;;;;;;2.60;1.63;;;;;;;19.09;59.00;97946.09;4995267;28;20199;-75
2023/07/20 01:17:42;;;;;;;2.43;1.80;;;;;;;19.04;60.95;97954.16;4994785;28;20523;-75
2023/07/20 01:20:11;;;;;;;4.30;1.80;;;;;;;19.00;59.44;97942.34;4994715;28;20231;-75
2023/07/20 01:23:01;;;;;;;2.93;1.80;;;;;;;18.94;60.14;97949.63;4994957;28;20231;-75
2023/07/20 01:25:56;;;;;;;1.83;1.57;;;;;;;18.98;59.35;97958.78;4995311;28;20192;-75
2023/07/20 01:28:25;;;;;;;1.67;1.57;;;;;;;18.89;59.90;97957.75;4994930;28;20587;-75
2023/07/20 01:31:14;;;;;;;2.17;1.97;;;;;;;18.90;61.34;97953.13;4994968;28;20213;-75
2023/07/20 01:33:42;;;;;;;2.83;1.87;;;;;;;18.80;60.85;97959.38;4994629;28;20194;-75
2023/07/20 01:36:10;;;;;;;2.30;1.67;;;;;;;18.83;60.66;97952.63;4994788;28;20662;-75
2023/07/20 01:38:38;;;;;;;2.63;1.97;;;;;;;18.82;60.42;97957.22;4994706;28;20249;-75
2023/07/20 01:41:04;;;;;;;2.73;1.70;;;;;;;18.74;61.65;97955.06;4994682;28;20207;-75
2023/07/20 01:43:31;;;;;;;2.40;1.93;;;;;;;18.77;61.10;97957.22;4994024;28;20213;-75
2023/07/20 01:45:57;;;;;;;3.70;1.93;;;;;;;18.79;61.45;97960.47;4994911;28;20214;-75
2023/07/20 01:48:24;;;;;;;3.73;1.90;;;;;;;18.72;62.33;97956.41;4994924;28;20224;-75
2023/07/20 01:50:50;;;;;;;2.47;1.90;;;;;;;18.69;61.85;97955.09;4994553;28;20223;-75
2023/07/20 01:53:16;;;;;;;3.47;2.00;;;;;;;18.70;61.85;97959.41;4994861;28;20230;-75
2023/07/20 01:55:43;;;;;;;1.70;1.60;;;;;;;18.64;62.42;97957.78;4994824;28;20218;-75
2023/07/20 01:58:09;;;;;;;2.53;1.60;;;;;;;18.63;62.98;97948.09;4994664;28;20229;-75
2023/07/20 02:00:38;;;;;;;2.33;1.73;;;;;;;18.59;63.84;97954.31;4994707;28;20208;-75
2023/07/20 02:03:04;;;;;;;2.57;1.60;;;;;;;18.50;64.24;97951.34;4994294;28;20692;-75
2023/07/20 02:05:31;;;;;;;2.40;1.80;;;;;;;18.46;63.70;97955.66;4994323;28;20670;-75
2023/07/20 02:07:57;;;;;;;3.83;1.93;;;;;;;18.46;63.49;97952.19;4994202;28;20573;-75
2023/07/20 02:10:23;;;;;;;4.67;2.00;;;;;;;18.42;63.71;97951.91;4994583;28;20211;-75
2023/07/20 02:12:50;;;;;;;2.67;1.80;;;;;;;18.41;64.98;97952.97;4994569;28;20230;-75
2023/07/20 02:15:16;;;;;;;2.47;1.83;;;;;;;18.38;64.93;97950.84;4994592;28;20212;-75
2023/07/20 02:17:43;;;;;;;3.20;1.90;;;;;;;18.31;64.40;97950.28;4994570;28;20262;-75
2023/07/20 02:20:10;;;;;;;2.80;1.83;;;;;;;18.29;64.84;97959.69;4994212;28;20266;-75
2023/07/20 02:22:38;;;;;;;2.57;2.20;;;;;;;18.24;64.87;97960.50;4994406;28;20223;-75
2023/07/20 02:25:08;;;;;;;2.33;2.00;;;;;;;18.29;65.12;97957.81;4994432;28;20207;-75
2023/07/20 02:27:35;;;;;;;3.30;1.83;;;;;;;18.28;65.83;97953.50;4994388;28;20207;-75
2023/07/20 02:30:02;;;;;;;2.80;1.87;;;;;;;18.24;65.45;97949.72;4994319;28;20226;-75
2023/07/20 02:32:29;;;;;;;2.60;1.90;;;;;;;18.17;66.72;97954.59;4994549;28;20270;-75
2023/07/20 02:34:55;;;;;;;1.77;1.60;;;;;;;18.19;65.45;97946.25;4994008;28;20671;-75
2023/07/20 02:37:22;;;;;;;3.53;2.10;;;;;;;18.14;66.05;97952.44;4994095;28;20674;-75
2023/07/20 02:39:48;;;;;;;2.53;1.90;;;;;;;18.16;66.75;97949.47;4994192;28;20235;-75
2023/07/20 02:42:14;;;;;;;3.70;2.30;;;;;;;18.12;66.29;97949.22;4994059;28;20690;-75
2023/07/20 02:44:41;;;;;;;3.00;2.10;;;;;;;18.08;67.39;97952.69;4994205;28;20211;-75
2023/07/20 02:47:07;;;;;;;2.80;1.90;;;;;;;18.10;67.17;97955.94;4994144;28;20217;-75
2023/07/20 02:49:33;;;;;;;3.20;2.00;;;;;;;18.00;67.88;97956.72;4993974;28;20605;-75
2023/07/20 02:52:00;;;;;;;4.03;1.90;;;;;;;17.96;67.59;97958.34;4994110;28;20207;-75
2023/07/20 02:54:26;;;;;;;2.30;2.10;;;;;;;17.99;67.84;97957.81;4995739;28;20233;-75
2023/07/20 02:56:53;;;;;;;2.10;1.77;;;;;;;17.93;69.28;97964.28;4998203;28;20213;-75
2023/07/20 02:59:19;;;;;;;2.00;1.80;;;;;;;17.88;68.95;97966.97;4998055;28;20231;-75
2023/07/20 03:01:46;;;;;;;2.67;1.70;;;;;;;17.78;69.72;97966.13;4997990;28;20253;-75
2023/07/20 03:04:12;;;;;;;5.10;2.30;;;;;;;17.74;69.51;97971.22;4997855;28;20211;-75
2023/07/20 03:06:38;;;;;;;2.43;2.13;;;;;;;17.76;70.89;97971.78;4997912;28;20222;-76
2023/07/20 03:09:06;;;;;;;2.70;1.90;;;;;;;17.64;70.78;97975.78;4997823;28;20233;-76
2023/07/20 03:11:33;;;;;;;3.10;1.90;;;;;;;17.68;70.28;97980.34;4997767;28;20218;-76
2023/07/20 03:14:00;;;;;;;2.37;1.83;;;;;;;17.69;69.68;97967.72;4997786;28;20610;-76
2023/07/20 03:16:26;;;;;;;2.77;1.90;;;;;;;17.69;70.25;97973.09;4998006;28;20203;-75
2023/07/20 03:18:53;;;;;;;2.93;2.00;;;;;;;17.67;71.04;97975.25;4997260;28;20227;-75
2023/07/20 03:21:19;;;;;;;2.60;1.97;;;;;;;17.52;71.94;97972.53;4997999;28;20211;-75
2023/07/20 03:23:45;;;;;;;2.67;2.07;;;;;;;17.51;72.38;97976.28;4997807;28;20295;-76
2023/07/20 03:26:12;;;;;;;2.60;1.90;;;;;;;17.61;72.78;97976.31;4997487;28;20203;-75
2023/07/20 03:28:39;;;;;;;3.83;1.97;;;;;;;17.53;72.80;97980.31;4997388;28;20235;-75
2023/07/20 03:31:05;;;;;;;2.67;2.00;;;;;;;17.49;72.35;97989.16;4997399;28;20210;-75
2023/07/20 03:33:33;;;;;;;4.00;1.83;;;;;;;17.44;73.09;97981.91;4997078;28;20290;-75
2023/07/20 03:36:00;;;;;;;2.90;1.90;;;;;;;17.45;72.57;97983.53;4997320;28;20291;-75
2023/07/20 03:38:27;;;;;;;2.43;2.03;;;;;;;17.44;73.42;97981.09;4996991;28;20227;-75
2023/07/20 03:40:55;;;;;;;4.10;2.23;;;;;;;17.30;75.94;97986.13;4997138;28;20262;-75
2023/07/20 03:43:23;;;;;;;3.37;1.90;;;;;;;17.33;75.62;97985.59;4996408;28;20246;-75
2023/07/20 03:45:51;;;;;;;2.00;1.70;;;;;;;17.28;76.75;97988.25;4996889;28;20207;-75
2023/07/20 03:48:18;;;;;;;4.83;1.97;;;;;;;17.20;76.72;97983.38;4996639;28;20278;-75
2023/07/20 03:50:48;;;;;;;4.23;2.17;;;;;;;17.19;76.53;97991.72;4996590;28;20219;-75
2023/07/20 03:53:15;;;;;;;3.77;1.97;;;;;;;17.25;76.19;97990.66;4996670;28;20210;-75
2023/07/20 03:55:46;;;;;;;2.57;1.90;;;;;;;17.22;76.44;97985.81;4996867;28;20215;-75
2023/07/20 03:58:13;;;;;;;3.63;2.20;;;;;;;17.19;76.04;97984.47;4996889;28;20228;-75
2023/07/20 04:00:39;;;;;;;2.30;1.70;;;;;;;17.20;76.82;97986.06;4996349;28;20200;-75
2023/07/20 04:03:06;;;;;;;3.73;2.10;;;;;;;17.31;76.77;97990.44;4996075;28;20266;-75
2023/07/20 04:05:32;;;;;;;3.33;2.20;;;;;;;17.26;77.00;97995.78;4995306;28;20577;-75
2023/07/20 04:07:59;;;;;;;3.67;2.10;;;;;;;17.16;77.82;97987.69;4995746;28;20211;-75
2023/07/20 04:10:25;;;;;;;3.03;1.97;;;;;;;17.23;77.36;97988.25;4993710;28;20218;-75
2023/07/20 04:12:52;;;;;;;3.30;1.80;;;;;;;17.22;77.75;97983.94;4995087;28;20218;-75
2023/07/20 04:15:18;;;;;;;2.60;2.00;;;;;;;17.24;78.24;97989.84;4995810;28;20207;-75
2023/07/20 04:17:45;;;;;;;3.13;2.07;;;;;;;17.28;78.36;97993.63;4995906;28;20207;-75
2023/07/20 04:20:12;;;;;;;4.70;2.17;;;;;;;17.35;77.96;97999.59;4995580;28;20223;-74
2023/07/20 04:22:39;;;;;;;2.43;1.90;;;;;;;17.46;77.79;98006.63;4994792;28;20223;-74
2023/07/20 04:25:05;;;;;;;2.23;1.90;;;;;;;17.57;75.68;98002.91;4995242;28;20203;-75
2023/07/20 04:27:32;;;;;;;4.00;1.87;;;;;;;17.65;76.00;97993.53;4983006;28;20686;-75
2023/07/20 04:30:02;;;;;;;2.57;1.87;;;;;;;17.65;76.47;97991.63;4995436;28;20233;-75
2023/07/20 04:32:28;;;;;;;3.07;2.10;;;;;;;17.68;76.03;97993.81;4996474;28;20303;-75
2023/07/20 04:34:54;;;;;;;2.23;1.70;;;;;;;17.80;74.78;97994.38;4995545;28;20214;-75
2023/07/20 04:37:21;;;;;;;2.27;2.07;;;;;;;17.82;76.67;97994.13;4995969;28;20214;-75
2023/07/20 04:39:47;;;;;;;3.83;1.83;;;;;;;17.87;74.08;98000.28;4995945;28;20694;-75
2023/07/20 04:42:14;;;;;;;4.03;2.07;;;;;;;17.93;72.48;97996.56;4995338;28;20716;-75
2023/07/20 04:44:40;;;;;;;3.93;2.20;;;;;;;17.94;77.78;97992.78;4995485;28;20207;-75
2023/07/20 04:47:08;;;;;;;2.07;1.87;;;;;;;17.99;74.92;97995.47;4995931;28;20211;-75
2023/07/20 04:49:34;;;;;;;4.47;2.00;;;;;;;18.00;77.27;97993.59;4995569;28;20326;-75
2023/07/20 04:52:02;;;;;;;2.17;1.90;;;;;;;18.03;75.40;97999.25;4994723;28;20286;-75
2023/07/20 04:54:29;;;;;;;3.70;1.90;;;;;;;18.11;76.56;97998.72;4995197;28;20231;-75
2023/07/20 04:56:55;;;;;;;1.93;1.77;;;;;;;18.17;73.90;97992.25;4990699;28;20569;-75
2023/07/20 04:59:21;;;;;;;3.07;1.83;;;;;;;18.21;75.09;97996.03;4992369;28;20227;-75
2023/07/20 05:01:48;;;;;;;2.47;1.80;;;;;;;18.33;73.21;97999.28;4991893;28;20211;-75
2023/07/20 05:04:14;;;;;;;3.50;1.93;;;;;;;18.33;72.02;97993.09;4991710;28;20704;-75
2023/07/20 05:06:41;;;;;;;4.47;1.90;;;;;;;18.46;70.95;97998.72;4992283;28;20207;-75
2023/07/20 05:09:07;;;;;;;2.57;2.10;;;;;;;18.89;72.51;98008.09;4992704;28;20596;-75
2023/07/20 05:11:34;;;;;;;2.10;1.53;;;;;;;19.41;70.43;98003.91;4992604;28;20207;-75
2023/07/20 05:14:01;;;;;;;2.63;1.70;;;;;;;20.06;65.85;98001.94;4994377;28;20211;-75
2023/07/20 05:16:28;;;;;;;2.63;1.87;;;;;;;20.46;62.76;98004.34;4994923;28;20207;-76
2023/07/20 05:18:54;;;;;;;2.10;1.70;;;;;;;20.94;60.85;98000.69;4994554;28;20830;-76
2023/07/20 05:21:21;;;;;;;3.00;1.80;;;;;;;21.12;59.77;98002.66;4994836;28;20211;-76
2023/07/20 05:23:47;;;;;;;4.10;1.93;;;;;;;21.02;60.04;97992.75;4995070;28;20235;-75
2023/07/20 05:26:13;;;;;;;2.97;1.90;;;;;;;20.58;62.40;98007.50;4994581;28;20207;-75
2023/07/20 05:28:40;;;;;;;3.07;1.90;;;;;;;20.47;62.57;98000.56;4994527;28;20223;-75
2023/07/20 05:31:06;;;;;;;3.83;2.00;;;;;;;20.49;61.57;97995.69;4994813;28;20213;-75
2023/07/20 05:33:33;;;;;;;3.40;2.03;;;;;;;20.04;63.01;97996.84;4994362;28;20211;-76
2023/07/20 05:35:59;;;;;;;3.37;2.30;;;;;;;20.01;63.28;97997.38;4995029;28;20213;-76
2023/07/20 05:38:26;;;;;;;3.47;1.80;;;;;;;19.87;64.17;97995.59;4994720;28;20539;-76
2023/07/20 05:40:52;;;;;;;4.73;2.17;;;;;;;19.72;65.03;97993.81;4994475;28;20667;-73
2023/07/20 05:43:18;;;;;;;2.70;1.73;;;;;;;19.77;65.20;97993.78;4994539;28;20223;-73
2023/07/20 05:45:46;;;;;;;2.30;2.00;;;;;;;19.82;65.24;97996.44;4994194;28;20207;-73
2023/07/20 05:48:12;;;;;;;3.13;2.00;;;;;;;20.01;64.13;97991.19;4994572;28;20223;-73
2023/07/20 05:50:43;;;;;;;3.67;2.30;;;;;;;19.97;63.80;97995.50;4994313;28;20226;-73
2023/07/20 05:53:09;;;;;;;1.90;1.60;;;;;;;19.89;64.63;97991.53;4994434;28;20187;-73
2023/07/20 05:55:36;;;;;;;4.30;2.10;;;;;;;19.98;64.23;97991.75;4994544;28;20203;-73
2023/07/20 05:58:04;;;;;;;2.80;1.90;;;;;;;20.09;65.64;97998.72;4994088;28;20551;-73
2023/07/20 06:00:30;;;;;;;4.97;2.27;;;;;;;20.20;65.27;97995.66;4994557;28;20214;-73
2023/07/20 06:02:56;;;;;;;3.77;2.30;;;;;;;20.20;64.35;98000.25;4994450;28;20318;-73
2023/07/20 06:05:23;;;;;;;3.00;2.10;;;;;;;20.26;64.04;97996.44;4994709;28;20203;-73
2023/07/20 06:07:50;;;;;;;2.50;2.10;;;;;;;20.13;63.43;97999.78;4993820;28;20203;-75
2023/07/20 06:10:16;;;;;;;2.20;2.00;;;;;;;20.32;64.28;98006.91;4994452;28;20207;-75
2023/07/20 06:12:43;;;;;;;3.00;2.00;;;;;;;20.17;63.41;98008.91;4993929;28;20210;-76
2023/07/20 06:15:28;;;;;;;6.17;2.13;;;;;;;20.27;62.78;98006.97;4994127;28;20207;-76
2023/07/20 06:17:57;;;;;;;6.27;2.03;;;;;;;20.37;62.53;98009.56;4993688;28;20191;-76
2023/07/20 06:20:24;;;;;;;3.90;1.80;;;;;;;20.49;63.63;98009.19;4994359;28;20215;-76
2023/07/20 06:22:50;;;;;;;4.13;1.93;;;;;;;20.60;61.48;98002.63;4993965;28;20230;-75
2023/07/20 06:25:17;;;;;;;4.57;2.00;;;;;;;20.49;61.78;98003.81;4993871;28;20207;-76
2023/07/20 06:27:44;;;;;;;3.20;1.80;;;;;;;20.40;63.57;98003.63;4994384;28;20207;-76
2023/07/20 06:30:11;;;;;;;4.57;2.03;;;;;;;20.29;63.38;98007.47;4993350;28;20231;-75
2023/07/20 06:32:38;;;;;;;4.30;2.10;;;;;;;20.25;64.50;98001.00;4993566;28;20216;-76
2023/07/20 06:35:04;;;;;;;2.90;1.63;;;;;;;20.29;65.16;97998.56;4993633;28;20685;-76
2023/07/20 06:37:31;;;;;;;2.87;2.00;;;;;;;20.50;66.59;98000.81;4993339;28;20207;-76
2023/07/20 06:39:57;;;;;;;4.03;2.17;;;;;;;20.62;64.75;98003.16;4993725;28;20282;-76
2023/07/20 06:42:23;;;;;;;4.20;1.90;;;;;;;20.65;65.06;98002.56;4993749;28;20239;-76
2023/07/20 06:44:50;;;;;;;3.53;2.30;;;;;;;20.79;64.25;98000.84;4994406;28;20211;-76
2023/07/20 06:47:16;;;;;;;5.83;2.10;;;;;;;20.74;63.89;98003.56;4993952;28;20207;-76
2023/07/20 06:49:43;;;;;;;5.10;2.13;;;;;;;20.50;63.33;98000.81;4993323;28;20242;-75
2023/07/20 06:52:09;;;;;;;5.77;2.10;;;;;;;20.73;63.70;98004.66;4993949;28;20217;-76
2023/07/20 06:54:35;;;;;;;5.90;2.23;;;;;;;20.73;63.29;97999.25;4993689;28;20207;-73
2023/07/20 06:57:01;;;;;;;3.17;2.00;;;;;;;20.66;62.59;98002.28;4993748;28;20214;-73
2023/07/20 06:59:28;;;;;;;3.50;1.90;;;;;;;20.62;62.69;97990.44;4993819;28;20227;-73
2023/07/20 07:01:54;;;;;;;3.00;1.83;;;;;;;20.79;63.20;97995.44;4993784;28;20203;-73
2023/07/20 07:04:21;;;;;;;2.87;1.80;;;;;;;20.78;63.13;98002.72;4993515;28;20231;-73
2023/07/20 07:06:48;;;;;;;3.93;2.10;;;;;;;20.75;62.06;98003.28;4993715;28;20211;-73
2023/07/20 07:09:14;;;;;;;4.33;2.20;;;;;;;20.68;61.37;98000.13;4993513;28;20310;-73
2023/07/20 07:11:41;;;;;;;2.43;2.00;;;;;;;20.64;61.29;98000.97;4993613;28;20230;-73
2023/07/20 07:14:07;;;;;;;4.43;2.13;;;;;;;20.76;61.88;98002.19;4993784;28;20204;-73
2023/07/20 07:16:34;;;;;;;3.80;1.87;;;;;;;20.83;62.83;97996.44;4993438;28;20207;-73
2023/07/20 07:19:00;;;;;;;5.37;1.90;;;;;;;20.79;61.35;98000.84;4992949;28;20231;-73
2023/07/20 07:21:26;;;;;;;4.60;1.97;;;;;;;20.79;61.70;97990.81;4993357;28;20666;-73
2023/07/20 07:23:57;;;;;;;4.73;2.00;;;;;;;20.80;61.71;97994.34;4993144;28;20694;-73
2023/07/20 07:26:23;;;;;;;4.50;2.10;;;;;;;20.90;62.70;97991.53;4993453;28;20195;-73
2023/07/20 07:28:50;;;;;;;3.47;2.00;;;;;;;20.98;61.61;97997.13;4993140;28;20733;-73
2023/07/20 07:31:16;;;;;;;4.90;2.30;;;;;;;20.87;62.02;97994.78;4993641;28;20580;-73
2023/07/20 07:33:42;;;;;;;2.63;1.80;;;;;;;20.81;59.97;97996.75;4993526;28;20233;-73
2023/07/20 07:36:09;;;;;;;3.97;2.30;;;;;;;20.68;60.90;97994.72;4993653;28;20215;-73
2023/07/20 07:38:35;;;;;;;3.47;1.87;;;;;;;20.56;60.04;97993.47;4993306;28;20234;-72
2023/07/20 07:41:01;;;;;;;3.03;2.10;;;;;;;20.45;60.34;97992.78;4993989;28;20207;-73
2023/07/20 07:43:28;;;;;;;3.10;1.87;;;;;;;20.59;61.05;98001.00;4996481;28;20241;-73
2023/07/20 07:45:55;;;;;;;3.00;1.73;;;;;;;20.81;60.95;97985.94;4997746;28;20301;-73
2023/07/20 07:48:22;;;;;;;2.10;1.70;;;;;;;20.76;59.81;97993.28;4996547;28;20713;-72
2023/07/20 07:50:49;;;;;;;2.53;1.80;;;;;;;20.87;58.55;97992.09;4996512;28;20306;-72
2023/07/20 07:53:16;;;;;;;2.47;2.00;;;;;;;21.14;59.73;97978.84;4996639;28;20199;-73
2023/07/20 07:55:42;;;;;;;2.87;2.17;;;;;;;21.10;58.50;97994.84;4996738;28;20208;-73
2023/07/20 07:58:09;;;;;;;2.87;2.17;;;;;;;21.29;58.05;97982.16;4996650;28;20238;-73
2023/07/20 08:00:35;;;;;;;5.43;2.40;;;;;;;21.27;58.17;97983.56;4996582;28;20283;-72
2023/07/20 08:03:02;;;;;;;4.33;2.23;;;;;;;21.35;59.97;97981.00;4996611;28;20227;-73
2023/07/20 08:05:28;;;;;;;4.67;1.90;;;;;;;21.42;58.53;97981.47;4996604;28;20211;-73
2023/07/20 08:07:55;;;;;;;3.13;1.87;;;;;;;21.36;58.13;97989.94;4996500;28;20210;-73
2023/07/20 08:10:21;;;;;;;2.40;2.10;;;;;;;21.24;57.48;97984.13;4996441;28;20203;-73
2023/07/20 08:12:48;;;;;;;3.77;2.00;;;;;;;21.54;56.35;97984.56;4996454;28;20242;-73
2023/07/20 08:15:15;;;;;;;5.47;2.10;;;;;;;21.89;57.76;97975.19;4996241;28;20261;-73
2023/07/20 08:17:44;;;;;;;2.03;1.80;;;;;;;22.24;55.16;97974.66;4996306;28;20262;-73
2023/07/20 08:20:12;;;;;;;3.92;2.10;;;;;;;21.83;54.65;97970.94;4996015;28;20235;-73
2023/07/20 08:22:39;;;;;;;5.03;2.70;;;;;;;21.99;55.40;97969.63;4996004;28;20203;-73
2023/07/20 08:25:06;;;;;;;3.97;2.80;;;;;;;21.86;56.49;97970.34;4996351;28;20210;-72
2023/07/20 08:27:33;;;;;;;4.78;2.22;;;;;;;21.77;55.63;97983.75;4996344;28;20211;-73
2023/07/20 08:29:59;;;;;;;4.18;2.50;;;;;;;21.47;56.46;97988.72;4996195;28;20235;-73
2023/07/20 08:32:26;;;;;;;3.47;2.13;;;;;;;21.14;57.61;97990.47;4996247;28;20218;-72
2023/07/20 08:34:53;;;;;;;4.77;2.40;;;;;;;21.31;57.87;97984.59;4996391;28;20207;-73
2023/07/20 08:37:20;;;;;;;5.33;2.00;;;;;;;21.51;57.41;97990.56;4996147;28;20566;-73
2023/07/20 08:39:46;;;;;;;3.40;2.00;;;;;;;21.57;55.84;97994.00;4996142;28;20242;-73
2023/07/20 08:42:15;;;;;;;3.23;2.00;;;;;;;21.60;56.23;97988.81;4995905;28;20215;-73
2023/07/20 08:44:43;;;;;;;3.10;2.20;;;;;;;22.27;53.87;97988.41;4994998;28;20234;-73
2023/07/20 08:47:13;;;;;;;6.40;2.08;;;;;;;22.33;54.09;97978.25;4993824;28;20261;-73
2023/07/20 08:49:40;;;;;;;2.92;1.98;;;;;;;22.39;52.64;97980.59;4993620;28;20231;-73
2023/07/20 08:52:07;;;;;;;3.80;2.00;;;;;;;22.13;53.37;97978.59;4993450;28;20207;-73
2023/07/20 08:54:34;;;;;;;2.78;1.92;;;;;;;22.58;53.14;97970.56;4993754;28;20214;-73
2023/07/20 08:57:05;;;;;;;3.90;2.05;;;;;;;22.01;52.56;97976.34;4993250;28;20215;-73
2023/07/20 08:59:33;;;;;;;3.67;1.90;;;;;;;21.95;54.05;97977.53;4993171;28;20663;-73
2023/07/20 09:02:00;;;;;;;4.75;2.20;;;;;;;22.09;55.25;97972.97;4995105;28;20262;-73
2023/07/20 09:04:27;;;;;;;5.20;1.88;;;;;;;22.14;54.16;97975.59;4995734;28;20234;-73
2023/07/20 09:06:53;;;;;;;4.47;2.00;;;;;;;22.09;52.54;97975.69;4995563;28;20204;-73
2023/07/20 09:09:20;;;;;;;4.10;1.90;;;;;;;22.33;51.19;97978.25;4995349;28;20227;-73
2023/07/20 09:11:50;;;;;;;2.95;1.80;;;;;;;22.43;49.80;97961.88;4995449;28;20203;-73
2023/07/20 09:14:17;;;;;;;4.55;1.75;;;;;;;22.93;49.48;97961.78;4995189;28;20199;-73
2023/07/20 09:16:51;;;;;;;3.47;1.83;;;;;;;22.50;48.41;97984.78;4995030;28;20269;-73
2023/07/20 09:19:18;;;;;;;2.28;1.52;;;;;;;22.59;48.77;97969.47;4995061;28;20253;-73
2023/07/20 09:21:47;;;;;;;6.65;1.90;;;;;;;22.81;47.36;97964.19;4995507;28;20211;-73
2023/07/20 09:24:14;;;;;;;4.30;1.98;;;;;;;23.13;47.50;97963.28;4995206;28;20227;-73
2023/07/20 09:26:45;;;;;;;3.97;1.60;;;;;;;23.13;48.78;97974.97;4995217;28;20211;-72
2023/07/20 09:29:12;;;;;;;5.22;2.17;;;;;;;22.73;50.95;97966.78;4995008;28;20281;-73
2023/07/20 09:31:39;;;;;;;3.05;2.03;;;;;;;22.16;50.49;97972.59;4994910;28;20246;-72
2023/07/20 09:34:06;;;;;;;5.65;1.90;;;;;;;22.26;53.40;97965.13;4995657;28;20203;-73
2023/07/20 09:36:36;;;;;;;2.85;1.65;;;;;;;22.33;49.86;97970.13;4994525;28;20214;-72
2023/07/20 09:39:03;;;;;;;3.72;1.73;;;;;;;22.65;49.94;97970.19;4994931;28;20227;-76
2023/07/20 09:41:30;;;;;;;4.65;1.52;;;;;;;23.13;47.75;97964.09;4995005;28;20273;-76
2023/07/20 09:43:57;;;;;;;4.00;2.00;;;;;;;23.20;47.90;97971.88;4994888;28;20227;-76
2023/07/20 09:46:23;;;;;;;2.80;1.90;;;;;;;23.09;47.52;97956.88;4994781;28;20218;-76
2023/07/20 09:48:54;;;;;;;2.15;1.80;;;;;;;23.10;47.50;97962.00;4994214;28;20722;-76
2023/07/20 09:51:24;;;;;;;4.93;1.75;;;;;;;22.96;47.29;97957.66;4994808;28;20542;-76
2023/07/20 09:53:53;;;;;;;3.10;1.65;;;;;;;22.92;46.09;97962.88;4994386;28;20203;-76
2023/07/20 09:56:22;;;;;;;1.88;1.77;;;;;;;22.87;46.64;97954.03;4994114;28;20213;-76
2023/07/20 09:58:49;;;;;;;2.00;1.80;;;;;;;22.84;47.71;97957.38;4994569;28;20231;-77
2023/07/20 10:01:22;;;;;;;2.67;1.58;;;;;;;22.83;43.83;97963.91;4994987;28;20218;-75
2023/07/20 10:03:54;;;;;;;2.22;1.35;;;;;;;23.17;46.12;97945.31;4993899;28;20220;-76
2023/07/20 10:06:24;;;;;;;4.88;1.80;;;;;;;23.40;45.16;97944.31;4994364;28;20223;-73
2023/07/20 10:09:01;;;;;;;3.20;1.55;;;;;;;23.20;43.21;97947.47;4994131;28;20631;-73
2023/07/20 10:11:32;;;;;;;3.63;1.95;;;;;;;23.59;43.82;97950.41;4994102;28;20191;-73
2023/07/20 10:14:06;;;;;;;3.20;1.48;;;;;;;24.02;45.29;97938.06;4994606;28;20192;-73
2023/07/20 10:16:48;;;;;;;2.33;1.73;;;;;;;24.34;41.52;97948.69;4994448;28;20278;-74
2023/07/20 10:19:24;;;;;;;2.47;1.75;;;;;;;24.09;42.70;97941.13;4994195;28;20269;-76
2023/07/20 10:22:01;;;;;;;2.20;1.48;;;;;;;23.66;41.30;97934.53;4977748;28;20199;-76
2023/07/20 10:24:29;;;;;;;3.10;1.95;;;;;;;23.96;42.47;97937.38;4992785;28;20685;-76
2023/07/20 10:26:57;;;;;;;1.65;1.55;;;;;;;23.57;42.48;97936.34;4994303;28;20237;-76
2023/07/20 10:29:24;;;;;;;1.95;1.30;;;;;;;22.97;41.44;97930.25;4994168;28;20262;-76
2023/07/20 10:31:51;;;;;;;8.68;1.70;;;;;;;23.52;42.75;97923.69;4994089;28;20214;-76
2023/07/20 10:34:18;;;;;;;1.67;1.30;;;;;;;23.90;41.75;97925.03;4994418;28;20203;-76
2023/07/20 10:36:48;;;;;;;1.50;1.33;;;;;;;23.73;39.54;97926.75;4993466;28;20207;-76
2023/07/20 10:39:42;;;;;;;3.78;1.42;;;;;;;23.84;40.59;97918.06;4993598;28;20313;-76
2023/07/20 10:42:10;;;;;;;3.22;1.50;;;;;;;24.07;39.35;97927.06;4993572;28;20194;-76
2023/07/20 10:44:40;;;;;;;2.70;1.40;;;;;;;24.18;40.11;97910.22;4994266;28;20226;-75
2023/07/20 10:47:12;;;;;;;2.10;1.40;;;;;;;23.90;37.96;97914.16;4994007;28;20191;-76
2023/07/20 10:50:00;;;;;;;1.88;1.30;;;;;;;24.25;40.04;97912.50;4993149;28;20235;-73
2023/07/20 10:52:27;;;;;;;1.65;1.30;;;;;;;24.11;38.21;97909.06;4993186;28;20210;-73
2023/07/20 10:54:54;;;;;;;1.42;1.30;;;;;;;23.81;38.42;97917.88;4993902;28;20659;-73
2023/07/20 10:57:26;;;;;;;2.50;1.65;;;;;;;23.77;39.86;97916.88;4993837;28;20203;-73
2023/07/20 10:59:52;;;;;;;2.38;1.60;;;;;;;23.71;40.25;97912.69;4993722;28;20227;-73
2023/07/20 11:02:20;;;;;;;2.22;1.60;;;;;;;23.54;39.13;97907.91;4993721;28;20207;-73
2023/07/20 11:04:48;;;;;;;1.20;1.10;;;;;;;23.35;40.54;97906.44;4993332;28;20223;-73
2023/07/20 11:07:37;;;;;;;3.80;1.70;;;;;;;23.40;41.27;97906.34;4993434;28;20571;-73
2023/07/20 11:10:18;;;;;;;2.42;1.50;;;;;;;23.53;41.03;97905.50;4993767;28;20231;-72
2023/07/20 11:13:21;;;;;;;2.28;1.58;;;;;;;24.22;38.21;97910.41;4993219;28;20709;-72
2023/07/20 11:15:48;;;;;;;2.92;1.50;;;;;;;24.21;39.55;97915.03;4995534;28;20551;-73
2023/07/20 11:18:15;;;;;;;2.35;1.40;;;;;;;24.12;37.28;97905.22;4998008;28;20234;-73
2023/07/20 11:20:42;;;;;;;3.40;1.30;;;;;;;24.16;37.26;97911.66;4997158;28;20222;-73
2023/07/20 11:23:09;;;;;;;1.48;1.38;;;;;;;24.28;37.06;97906.47;4997456;28;20203;-73
2023/07/20 11:25:40;;;;;;;1.77;1.58;;;;;;;24.62;37.76;97902.03;4997240;28;20234;-73
2023/07/20 11:28:10;;;;;;;3.63;2.97;;;;;;;24.70;36.89;97911.34;4997255;28;20282;-73
2023/07/20 11:30:40;;;;;;;4.00;1.67;;;;;;;24.54;36.92;97907.38;4997397;28;20203;-76
2023/07/20 11:33:09;;;;;;;4.70;1.50;;;;;;;24.19;37.53;97895.53;4996934;28;20426;-73
2023/07/20 11:35:42;;;;;;;1.50;1.40;;;;;;;24.19;37.03;97892.81;4996893;28;20931;-73
2023/07/20 11:38:09;;;;;;;1.80;1.60;;;;;;;24.62;37.57;97895.78;4996625;28;20231;-72